Airfield :
LOGIN :

Register | Disclaimer

   EN    FR    IT 

 










Legend :    VFR   Marginal VFR   IFR   Intensive IFR   Very Intensive IFR
Visi :
Ceiling :
>= 8 km
>= 3000ft
5 to 8 km
1000 to 3000 ft
1500m to 5 km
500 to 1000 ft
800 to 1500m
200 to 500 ft
< 800m
< 200 ft
Symbols :   Thunderstorms  Fog  Heavy snow  Heavy precipitations  Wind > 20 kt
SIGMETs :     Misc.  Thunderstorms  Icing  Turbulence  Mountain Waves  Volcanic Ashes






- Airport Elevation : 7 ft
- IATA code : VCE


LIPZ - Marco Polo Int. Venezia

CURRENT METAR :
  • 230720Z 03006KT 360V060 9999 SCT070 27/20 Q1015 NOSIG

EXPIRED METARs :
  • 230650Z 03006KT 9999 SCT070 26/20 Q1015 NOSIG
  • 230620Z 02007KT 9999 SCT070 26/20 Q1015 NOSIG
  • 230550Z 01007KT 9999 SCT070 25/20 Q1015 NOSIG
  • 230520Z 01007KT CAVOK 25/20 Q1015 NOSIG
  • 230450Z 35005KT 320V020 CAVOK 23/20 Q1015 NOSIG
  • 230420Z 34006KT 320V040 CAVOK 23/20 Q1015 NOSIG
  • 230350Z 33006KT CAVOK 22/20 Q1014 NOSIG
  • 230320Z 33004KT CAVOK 22/20 Q1014 NOSIG
  • 230250Z 34003KT CAVOK 21/20 Q1014 NOSIG

TAF TAF LIPZ
Valid from the 23 at 06:00 until the 24 at 12:00 UTC


230500Z 2306/2412 03007KT 9999 SCT035
TEMPO 2314/2320 4000 TSRA



MET'MAP, your aeronautical weather chart ! - Copyright ORBIFLY December 2007 - Disclaimer

ORBIFLY MET'MAP TEAM :

Programming & Development : Alexandra Zaïnal
Original concept : Baudouin d'Aumeries
Technical & hardware support : Manuel Goepfert
Assistance : Marc-Olivier Méhu




SOURCES & CREDITS :

   NOAA